createdAt,value
2022-09-23T00:00:24.959Z,100146.94
2022-09-23T00:02:52.461Z,100146.19
2022-09-23T00:05:19.490Z,100149.09
2022-09-23T00:07:46.407Z,100150.34
2022-09-23T00:10:13.471Z,100149.13
2022-09-23T00:12:40.391Z,100149.13
2022-09-23T00:15:08.092Z,100149.25
2022-09-23T00:17:34.990Z,100144.97
2022-09-23T00:20:04.965Z,100139.94
2022-09-23T00:22:32.031Z,100133.06
2022-09-23T00:24:59.192Z,100140.03
2022-09-23T00:27:26.613Z,100131.25
2022-09-23T00:29:56.050Z,100139.78
2022-09-23T00:32:26.193Z,100124.91
2022-09-23T00:34:55.164Z,100123.44
2022-09-23T00:37:39.674Z,100119.16
2022-09-23T00:40:08.961Z,100119.78
2022-09-23T00:42:46.651Z,100114.84
2022-09-23T00:45:15.329Z,100114.97
2022-09-23T00:48:03.970Z,100115.88
2022-09-23T00:50:38.426Z,100122.03
2022-09-23T00:53:15.900Z,100117.91
2022-09-23T00:55:49.536Z,100112.81
2022-09-23T00:58:21.665Z,100111.28
2022-09-23T01:00:55.787Z,100106.13
2022-09-23T01:03:23.745Z,100110.50
2022-09-23T01:05:53.524Z,100108.19
2022-09-23T01:08:28.267Z,100107.88
2022-09-23T01:11:15.402Z,100109.81
2022-09-23T01:14:00.899Z,100114.19
2022-09-23T01:16:46.103Z,100107.88
2022-09-23T01:19:44.028Z,100110.22
2022-09-23T01:22:23.186Z,100112.94
2022-09-23T01:25:16.010Z,100112.13
2022-09-23T01:28:02.009Z,100103.28
2022-09-23T01:30:54.844Z,100109.56
2022-09-23T01:33:46.711Z,100102.31
2022-09-23T01:36:24.058Z,100103.25
2022-09-23T01:39:11.534Z,100104.28
2022-09-23T01:41:42.048Z,100091.47
2022-09-23T01:44:38.705Z,100096.13
2022-09-23T01:47:14.829Z,100091.38
2022-09-23T01:50:27.356Z,100099.31
2022-09-23T01:53:00.445Z,100096.56
2022-09-23T01:55:48.010Z,100096.56
2022-09-23T01:59:09.561Z,100097.38
2022-09-23T02:01:42.844Z,100086.75
2022-09-23T02:04:23.036Z,100088.53
2022-09-23T02:07:22.644Z,100092.09
2022-09-23T02:10:10.055Z,100098.78
2022-09-23T02:12:50.315Z,100096.19
2022-09-23T02:15:50.029Z,100091.28
2022-09-23T02:22:18.882Z,100082.81
2022-09-23T02:24:48.082Z,100081.97
2022-09-23T02:27:43.488Z,100085.28
2022-09-23T02:30:22.956Z,100088.97
2022-09-23T02:33:17.413Z,100082.91
2022-09-23T02:35:49.504Z,100081.22
2022-09-23T02:38:20.595Z,100087.31
2022-09-23T02:41:05.306Z,100088.34
2022-09-23T02:43:55.148Z,100092.84
2022-09-23T02:46:24.240Z,100083.34
2022-09-23T02:49:03.186Z,100098.16
2022-09-23T02:51:37.994Z,100088.59
2022-09-23T02:54:07.920Z,100092.09
2022-09-23T02:56:36.053Z,100090.69
2022-09-23T02:59:04.677Z,100095.84
2022-09-23T03:02:05.772Z,100094.03
2022-09-23T03:05:04.158Z,100093.28
2022-09-23T03:07:51.467Z,100090.72
2022-09-23T03:10:42.296Z,100082.81
2022-09-23T03:13:26.195Z,100078.66
2022-09-23T03:15:59.872Z,100089.22
2022-09-23T03:18:37.373Z,100090.22
2022-09-23T03:21:16.763Z,100081.44
2022-09-23T03:23:48.429Z,100076.69
2022-09-23T03:26:29.516Z,100074.97
2022-09-23T03:29:04.282Z,100076.63
2022-09-23T03:31:34.458Z,100071.50
2022-09-23T03:34:05.773Z,100083.88
2022-09-23T03:36:51.848Z,100084.84
2022-09-23T03:39:35.790Z,100077.72
2022-09-23T03:42:21.072Z,100071.56
2022-09-23T03:44:54.453Z,100069.72
2022-09-23T03:47:23.491Z,100066.50
2022-09-23T03:49:52.144Z,100066.53
2022-09-23T03:52:24.113Z,100073.47
2022-09-23T03:54:52.392Z,100077.06
2022-09-23T03:57:24.535Z,100074.41
2022-09-23T03:59:53.213Z,100068.28
2022-09-23T04:02:20.901Z,100073.50
2022-09-23T04:04:50.074Z,100066.31
2022-09-23T04:07:23.369Z,100071.66
2022-09-23T04:09:56.179Z,100069.94
2022-09-23T04:12:25.330Z,100061.00
2022-09-23T04:14:56.481Z,100073.47
2022-09-23T04:17:24.972Z,100076.22
2022-09-23T04:19:53.161Z,100070.91
2022-09-23T04:22:20.560Z,100075.28
2022-09-23T04:24:51.152Z,100071.97
2022-09-23T04:27:20.196Z,100073.78
2022-09-23T04:29:48.156Z,100075.56
2022-09-23T04:32:17.135Z,100075.63
2022-09-23T04:34:44.273Z,100082.72
2022-09-23T04:37:13.393Z,100079.22
2022-09-23T04:39:46.255Z,100075.66
2022-09-23T04:42:13.231Z,100081.78
2022-09-23T04:44:41.184Z,100077.50
2022-09-23T04:47:09.331Z,100080.94
2022-09-23T04:49:41.549Z,100077.44
2022-09-23T04:52:10.523Z,100080.03
2022-09-23T04:54:37.807Z,100075.69
2022-09-23T04:57:06.200Z,100073.88
2022-09-23T04:59:33.255Z,100073.88
2022-09-23T05:02:00.458Z,100079.22
2022-09-23T05:04:27.824Z,100080.13
2022-09-23T05:06:57.479Z,100079.22
2022-09-23T05:09:28.765Z,100080.03
2022-09-23T05:11:56.812Z,100079.19
2022-09-23T05:14:26.771Z,100085.22
2022-09-23T05:16:53.805Z,100082.63
2022-09-23T05:19:21.022Z,100081.66
2022-09-23T05:21:48.008Z,100078.13
2022-09-23T05:24:15.503Z,100083.34
2022-09-23T05:26:43.558Z,100084.09
2022-09-23T05:29:11.802Z,100083.22
2022-09-23T05:31:38.862Z,100083.09
2022-09-23T05:34:07.062Z,100090.03
2022-09-23T05:36:38.714Z,100093.41
2022-09-23T05:39:08.642Z,100087.13
2022-09-23T05:41:36.266Z,100089.69
2022-09-23T05:44:07.326Z,100096.56
2022-09-23T05:46:41.292Z,100094.81
2022-09-23T05:49:10.549Z,100095.63
2022-09-23T05:51:37.981Z,100097.97
2022-09-23T05:54:06.055Z,100099.53
2022-09-23T05:56:38.367Z,100102.00
2022-09-23T05:59:11.531Z,100094.19
2022-09-23T06:01:41.925Z,100096.47
2022-09-23T06:04:13.436Z,100095.50
2022-09-23T06:06:47.309Z,100090.81
2022-09-23T06:09:16.294Z,100086.19
2022-09-23T06:11:47.433Z,100095.78
2022-09-23T06:14:19.652Z,100090.38
2022-09-23T06:16:47.768Z,100101.72
2022-09-23T06:19:17.851Z,100104.34
2022-09-23T06:21:44.891Z,100104.13
2022-09-23T06:24:16.936Z,100103.97
2022-09-23T06:26:46.154Z,100095.03
2022-09-23T06:29:13.218Z,100096.56
2022-09-23T06:31:42.286Z,100097.25
2022-09-23T06:34:13.972Z,100095.31
2022-09-23T06:36:44.832Z,100104.88
2022-09-23T06:39:13.825Z,100094.13
2022-09-23T06:41:46.048Z,100095.69
2022-09-23T06:44:14.788Z,100090.22
2022-09-23T06:46:41.979Z,100091.75
2022-09-23T06:49:09.466Z,100089.00
2022-09-23T06:51:37.621Z,100098.25
2022-09-23T06:54:04.976Z,100096.16
2022-09-23T06:56:36.298Z,100103.66
2022-09-23T06:59:05.571Z,100104.41
2022-09-23T07:01:58.238Z,100098.09
2022-09-23T07:04:29.210Z,100101.22
2022-09-23T07:06:58.621Z,100107.78
2022-09-23T07:09:29.305Z,100094.44
2022-09-23T07:12:02.748Z,100097.91
2022-09-23T07:14:31.929Z,100107.91
2022-09-23T07:17:00.237Z,100092.69
2022-09-23T07:19:27.331Z,100102.19
2022-09-23T07:21:56.326Z,100100.78
2022-09-23T07:24:24.283Z,100107.78
2022-09-23T07:26:57.288Z,100096.47
2022-09-23T07:29:24.333Z,100107.78
2022-09-23T07:32:01.508Z,100100.53
2022-09-23T07:34:36.689Z,100103.56
2022-09-23T07:37:04.578Z,100096.75
2022-09-23T07:39:32.720Z,100106.50
2022-09-23T07:41:59.976Z,100109.94
2022-09-23T07:44:31.915Z,100108.41
2022-09-23T07:47:00.649Z,100113.53
2022-09-23T07:49:36.780Z,100113.50
2022-09-23T07:52:05.169Z,100104.28
2022-09-23T07:54:32.595Z,100104.09
2022-09-23T07:57:00.870Z,100105.25
2022-09-23T07:59:27.982Z,100110.97
2022-09-23T08:01:56.880Z,100109.50
2022-09-23T08:04:31.795Z,100110.63
2022-09-23T08:07:07.094Z,100097.22
2022-09-23T08:09:41.657Z,100103.31
2022-09-23T08:12:15.880Z,100099.03
2022-09-23T08:14:49.258Z,100102.78
2022-09-23T08:17:17.348Z,100090.69
2022-09-23T08:19:47.421Z,100094.13
2022-09-23T08:22:21.077Z,100099.31
2022-09-23T08:24:54.465Z,100096.00
2022-09-23T08:27:29.581Z,100100.31
2022-09-23T08:29:57.796Z,100095.38
2022-09-23T08:32:31.972Z,100094.94
2022-09-23T08:34:58.994Z,100096.72
2022-09-23T08:37:26.157Z,100104.47
2022-09-23T08:39:56.182Z,100098.88
2022-09-23T08:42:31.469Z,100099.34
2022-09-23T08:45:08.598Z,100096.88
2022-09-23T08:48:14.229Z,100086.09
2022-09-23T08:50:54.037Z,100086.06
2022-09-23T08:53:28.937Z,100074.56
2022-09-23T08:56:04.319Z,100069.00
2022-09-23T08:58:44.350Z,100071.25
2022-09-23T09:01:20.266Z,100072.63
2022-09-23T09:04:00.722Z,100075.63
2022-09-23T09:07:07.690Z,100064.50
2022-09-23T09:10:03.303Z,100063.78
2022-09-23T09:12:51.559Z,100061.84
2022-09-23T09:15:27.581Z,100051.50
2022-09-23T09:18:02.789Z,100048.72
2022-09-23T09:20:53.166Z,100038.75
2022-09-23T09:23:37.761Z,100043.50
2022-09-23T09:26:06.782Z,100044.41
2022-09-23T09:29:06.550Z,100042.78
2022-09-23T09:31:48.056Z,100037.97
2022-09-23T09:34:26.711Z,100032.00
2022-09-23T09:37:07.640Z,100038.59
2022-09-23T09:39:36.109Z,100048.44
2022-09-23T09:42:06.902Z,100040.59
2022-09-23T09:44:49.190Z,100034.88
2022-09-23T09:47:40.786Z,100038.44
2022-09-23T09:50:21.857Z,100038.69
2022-09-23T09:52:49.922Z,100033.03
2022-09-23T09:55:28.679Z,100029.75
2022-09-23T09:58:04.527Z,100032.97
2022-09-23T10:00:39.430Z,100029.91
2022-09-23T10:03:21.794Z,100028.31
2022-09-23T10:05:52.483Z,100020.75
2022-09-23T10:08:35.942Z,100030.03
2022-09-23T10:11:18.053Z,100031.84
2022-09-23T10:14:00.890Z,100026.72
2022-09-23T10:16:32.103Z,100024.03
2022-09-23T10:19:28.741Z,100015.75
2022-09-23T10:22:16.684Z,100011.56
2022-09-23T10:24:54.877Z,100015.25
2022-09-23T10:27:40.813Z,100006.47
2022-09-23T10:30:25.335Z,100003.03
2022-09-23T10:33:01.473Z,100013.38
2022-09-23T10:35:34.622Z,100006.88
2022-09-23T10:38:02.843Z,100011.22
2022-09-23T10:41:01.942Z,100005.84
2022-09-23T10:44:06.417Z,99996.66
2022-09-23T10:46:39.470Z,100002.94
2022-09-23T10:49:39.177Z,99992.56
2022-09-23T10:52:41.179Z,99995.84
2022-09-23T10:55:34.189Z,100003.22
2022-09-23T10:58:39.659Z,99993.34
2022-09-23T11:01:25.885Z,99996.53
2022-09-23T11:04:15.265Z,99988.28
2022-09-23T11:07:09.146Z,99980.06
2022-09-23T11:10:23.358Z,99984.03
2022-09-23T11:13:14.571Z,99981.75
2022-09-23T11:16:11.918Z,99982.59
2022-09-23T11:18:55.806Z,99975.38
2022-09-23T11:21:42.868Z,99974.19
2022-09-23T11:24:24.165Z,99968.88
2022-09-23T11:27:12.281Z,99970.13
2022-09-23T11:30:17.010Z,99961.75
2022-09-23T11:33:22.218Z,99958.19
2022-09-23T11:36:03.149Z,99946.47
2022-09-23T11:38:43.195Z,99956.25
2022-09-23T11:41:30.779Z,99944.81
2022-09-23T11:44:16.543Z,99946.81
2022-09-23T11:46:58.568Z,99944.88
2022-09-23T11:49:34.099Z,99945.66
2022-09-23T11:52:06.828Z,99944.25
2022-09-23T11:54:55.772Z,99940.16
2022-09-23T11:57:49.599Z,99947.50
2022-09-23T12:00:34.610Z,99929.97
2022-09-23T12:03:40.703Z,99934.44
2022-09-23T12:06:21.807Z,99920.81
2022-09-23T12:08:57.792Z,99921.09
2022-09-23T12:11:50.900Z,99922.56
2022-09-23T12:14:59.257Z,99910.50
2022-09-23T12:17:53.533Z,99909.94
2022-09-23T12:20:54.657Z,99909.69
2022-09-23T12:23:39.611Z,99905.28
2022-09-23T12:26:14.605Z,99892.66
2022-09-23T12:28:52.429Z,99890.22
2022-09-23T12:31:33.039Z,99889.09
2022-09-23T12:34:38.800Z,99888.50
2022-09-23T12:37:06.468Z,99880.69
2022-09-23T12:39:37.533Z,99868.66
2022-09-23T12:42:30.277Z,99872.38
2022-09-23T12:45:28.398Z,99869.81
2022-09-23T12:47:59.030Z,99864.78
2022-09-23T12:51:06.874Z,99865.34
2022-09-23T12:53:34.086Z,99858.25
2022-09-23T12:56:27.634Z,99860.50
2022-09-23T12:59:19.093Z,99857.41
2022-09-23T13:01:46.370Z,99853.97
2022-09-23T13:04:52.377Z,99852.66
2022-09-23T13:07:28.389Z,99851.88
2022-09-23T13:10:06.980Z,99838.50
2022-09-23T13:12:40.247Z,99845.78
2022-09-23T13:15:17.140Z,99841.50
2022-09-23T13:17:44.226Z,99828.31
2022-09-23T13:20:21.163Z,99831.22
2022-09-23T13:22:53.249Z,99840.88
2022-09-23T13:25:25.016Z,99838.94
2022-09-23T13:27:56.209Z,99830.59
2022-09-23T13:30:26.943Z,99820.56
2022-09-23T13:33:12.088Z,99825.13
2022-09-23T13:35:50.926Z,99827.97
2022-09-23T13:38:32.709Z,99812.31
2022-09-23T13:41:25.466Z,99808.28
2022-09-23T13:44:00.778Z,99807.75
2022-09-23T13:46:31.143Z,99808.72
2022-09-23T13:48:58.226Z,99804.63
2022-09-23T13:51:30.440Z,99802.59
2022-09-23T13:54:00.509Z,99797.56
2022-09-23T13:56:28.934Z,99788.34
2022-09-23T13:59:23.894Z,99786.28
2022-09-23T14:02:11.175Z,99785.66
2022-09-23T14:04:38.686Z,99793.03
2022-09-23T14:07:10.327Z,99779.19
2022-09-23T14:09:45.431Z,99785.81
2022-09-23T14:12:13.437Z,99772.38
2022-09-23T14:14:43.536Z,99764.22
2022-09-23T14:17:18.722Z,99764.88
2022-09-23T14:19:52.060Z,99766.50
2022-09-23T14:22:27.355Z,99766.56
2022-09-23T14:24:56.822Z,99778.06
2022-09-23T14:27:36.701Z,99775.81
2022-09-23T14:30:14.231Z,99769.41
2022-09-23T14:32:42.429Z,99769.28
2022-09-23T14:35:20.837Z,99756.34
2022-09-23T14:38:11.630Z,99764.69
2022-09-23T14:41:16.027Z,99763.88
2022-09-23T14:43:56.149Z,99759.00
2022-09-23T14:46:36.762Z,99753.34
2022-09-23T14:49:11.348Z,99745.91
2022-09-23T14:51:45.269Z,99748.16
2022-09-23T14:54:30.607Z,99749.53
2022-09-23T14:56:59.587Z,99745.94
2022-09-23T14:59:32.713Z,99738.66
2022-09-23T15:01:59.799Z,99740.53
2022-09-23T15:04:48.553Z,99738.91
2022-09-23T15:07:19.307Z,99740.66
2022-09-23T15:09:52.641Z,99735.34
2022-09-23T15:12:22.308Z,99731.16
2022-09-23T15:14:56.890Z,99729.03
2022-09-23T15:17:44.689Z,99722.06
2022-09-23T15:20:30.591Z,99727.88
2022-09-23T15:22:57.677Z,99729.66
2022-09-23T15:25:34.319Z,99719.50
2022-09-23T15:28:17.678Z,99716.22
2022-09-23T15:30:47.646Z,99713.56
2022-09-23T15:33:16.805Z,99715.19
2022-09-23T15:35:47.779Z,99714.97
2022-09-23T15:38:15.216Z,99708.69
2022-09-23T15:40:42.401Z,99711.09
2022-09-23T15:43:20.956Z,99710.69
2022-09-23T15:46:04.992Z,99705.78
2022-09-23T15:48:46.315Z,99705.16
2022-09-23T15:51:15.195Z,99709.19
2022-09-23T15:53:44.190Z,99708.31
2022-09-23T15:56:11.952Z,99705.38
2022-09-23T15:58:40.249Z,99704.53
2022-09-23T16:01:08.712Z,99706.31
2022-09-23T16:03:42.705Z,99704.16
2022-09-23T16:06:15.530Z,99709.44
2022-09-23T16:08:43.584Z,99711.09
2022-09-23T16:11:19.791Z,99706.00
2022-09-23T16:13:47.751Z,99713.47
2022-09-23T16:16:15.850Z,99700.03
2022-09-23T16:18:44.148Z,99705.19
2022-09-23T16:21:16.732Z,99702.38
2022-09-23T16:23:50.545Z,99711.94
2022-09-23T16:26:19.766Z,99709.47
2022-09-23T16:28:50.079Z,99714.31
2022-09-23T16:31:25.639Z,99713.47
2022-09-23T16:33:53.790Z,99706.97
2022-09-23T16:36:32.238Z,99712.88
2022-09-23T16:39:01.432Z,99708.47
2022-09-23T16:41:31.838Z,99706.75
2022-09-23T16:44:01.254Z,99710.03
2022-09-23T16:46:34.964Z,99707.59
2022-09-23T16:49:05.117Z,99710.56
2022-09-23T16:51:38.789Z,99710.97
2022-09-23T16:54:10.643Z,99705.63
2022-09-23T16:56:44.586Z,99709.22
2022-09-23T16:59:17.939Z,99699.97
2022-09-23T17:02:04.604Z,99706.34
2022-09-23T17:04:32.157Z,99708.28
2022-09-23T17:06:59.435Z,99711.28
2022-09-23T17:09:29.035Z,99712.41
2022-09-23T17:12:20.323Z,99712.81
2022-09-23T17:14:47.363Z,99702.31
2022-09-23T17:17:29.050Z,99710.63
2022-09-23T17:19:59.118Z,99705.88
2022-09-23T17:22:30.065Z,99707.06
2022-09-23T17:25:00.641Z,99701.38
2022-09-23T17:27:28.932Z,99705.38
2022-09-23T17:30:03.187Z,99716.34
2022-09-23T17:32:34.357Z,99707.63
2022-09-23T17:35:12.317Z,99705.38
2022-09-23T17:37:42.252Z,99708.25
2022-09-23T17:40:10.892Z,99711.63
2022-09-23T17:42:44.836Z,99708.97
2022-09-23T17:45:13.236Z,99707.38
2022-09-23T17:47:55.224Z,99708.63
2022-09-23T17:50:37.464Z,99706.63
2022-09-23T17:53:05.915Z,99713.03
2022-09-23T17:55:32.920Z,99711.31
2022-09-23T17:58:00.658Z,99712.16
2022-09-23T18:00:28.150Z,99708.66
2022-09-23T18:02:59.176Z,99703.03
2022-09-23T18:05:26.143Z,99705.69
2022-09-23T18:08:05.807Z,99709.91
2022-09-23T18:10:35.135Z,99708.34
2022-09-23T18:13:03.579Z,99713.94
2022-09-23T18:15:41.294Z,99708.16
2022-09-23T18:18:10.348Z,99711.97
2022-09-23T18:20:46.515Z,99712.22
2022-09-23T18:23:16.594Z,99716.00
2022-09-23T18:25:45.743Z,99708.09
2022-09-23T18:28:16.244Z,99713.47
2022-09-23T18:30:57.258Z,99702.00
2022-09-23T18:33:25.228Z,99703.38
2022-09-23T18:36:02.226Z,99701.97
2022-09-23T18:38:29.240Z,99691.91
2022-09-23T18:41:02.294Z,99693.88
2022-09-23T18:43:37.231Z,99690.94
2022-09-23T18:46:22.434Z,99692.59
2022-09-23T18:49:10.693Z,99691.19
2022-09-23T18:52:01.325Z,99690.56
2022-09-23T18:54:35.138Z,99686.53
2022-09-23T18:57:02.298Z,99689.97
2022-09-23T18:59:35.668Z,99680.00
2022-09-23T19:02:03.929Z,99683.88
2022-09-23T19:04:31.270Z,99684.34
2022-09-23T19:07:07.288Z,99686.91
2022-09-23T19:09:35.473Z,99684.34
2022-09-23T19:12:03.839Z,99682.47
2022-09-23T19:14:30.790Z,99700.97
2022-09-23T19:17:11.607Z,99695.56
2022-09-23T19:19:39.620Z,99697.56
2022-09-23T19:22:07.009Z,99704.56
2022-09-23T19:24:36.021Z,99700.44
2022-09-23T19:27:03.660Z,99698.44
2022-09-23T19:29:40.225Z,99690.00
2022-09-23T19:32:16.113Z,99686.34
2022-09-23T19:34:46.579Z,99688.41
2022-09-23T19:37:38.907Z,99684.22
2022-09-23T19:40:06.800Z,99677.44
2022-09-23T19:42:36.203Z,99682.22
2022-09-23T19:45:07.746Z,99684.03
2022-09-23T19:47:37.223Z,99679.66
2022-09-23T19:50:07.688Z,99681.75
2022-09-23T19:52:35.807Z,99687.19
2022-09-23T19:55:02.884Z,99690.94
2022-09-23T19:57:33.604Z,99684.72
2022-09-23T20:00:06.752Z,99692.84
2022-09-23T20:02:35.221Z,99688.66
2022-09-23T20:05:06.304Z,99677.88
2022-09-23T20:07:34.509Z,99678.28
2022-09-23T20:10:01.822Z,99676.28
2022-09-23T20:12:33.293Z,99666.66
2022-09-23T20:15:09.472Z,99664.81
2022-09-23T20:17:40.990Z,99672.59
2022-09-23T20:20:16.077Z,99663.06
2022-09-23T20:22:44.280Z,99673.72
2022-09-23T20:25:18.534Z,99664.06
2022-09-23T20:27:53.015Z,99666.53
2022-09-23T20:30:20.673Z,99663.22
2022-09-23T20:32:49.069Z,99667.03
2022-09-23T20:35:17.285Z,99675.97
2022-09-23T20:37:52.164Z,99671.50
2022-09-23T20:40:29.694Z,99680.34
2022-09-23T20:42:58.755Z,99670.81
2022-09-23T20:45:26.932Z,99664.53
2022-09-23T20:48:11.572Z,99670.25
2022-09-23T20:50:39.673Z,99663.66
2022-09-23T20:53:09.417Z,99662.88
2022-09-23T20:55:36.504Z,99659.91
2022-09-23T20:58:06.473Z,99663.28
2022-09-23T21:00:34.756Z,99657.69
2022-09-23T21:03:02.972Z,99662.28
2022-09-23T21:05:35.237Z,99663.59
2022-09-23T21:08:03.275Z,99669.16
2022-09-23T21:10:38.303Z,99663.78
2022-09-23T21:13:12.494Z,99659.72
2022-09-23T21:16:05.621Z,99660.66
2022-09-23T21:18:35.393Z,99666.75
2022-09-23T21:21:06.612Z,99663.78
2022-09-23T21:23:38.571Z,99663.88
2022-09-23T21:26:19.153Z,99668.28
2022-09-23T21:28:51.270Z,99661.50
2022-09-23T21:31:26.017Z,99666.13
2022-09-23T21:33:59.343Z,99664.09
2022-09-23T21:36:34.903Z,99661.53
2022-09-23T21:39:02.057Z,99666.91
2022-09-23T21:41:30.770Z,99674.13
2022-09-23T21:43:59.641Z,99672.41
2022-09-23T21:46:29.793Z,99663.59
2022-09-23T21:49:00.568Z,99661.53
2022-09-23T21:51:30.542Z,99656.25
2022-09-23T21:54:01.416Z,99646.81
2022-09-23T21:56:30.618Z,99650.22
2022-09-23T21:59:00.151Z,99654.69
2022-09-23T22:01:34.988Z,99652.03
2022-09-23T22:04:16.322Z,99650.22
2022-09-23T22:06:54.197Z,99653.81
2022-09-23T22:09:21.693Z,99653.97
2022-09-23T22:12:07.660Z,99655.38
2022-09-23T22:14:35.096Z,99659.03
2022-09-23T22:17:04.689Z,99651.94
2022-09-23T22:19:44.265Z,99662.25
2022-09-23T22:22:15.768Z,99649.59
2022-09-23T22:24:46.040Z,99660.44
2022-09-23T22:27:17.584Z,99655.25
2022-09-23T22:30:03.007Z,99651.72
2022-09-23T22:32:41.995Z,99660.72
2022-09-23T22:35:16.862Z,99663.78
2022-09-23T22:37:48.982Z,99661.22
2022-09-23T22:40:16.418Z,99660.13
2022-09-23T22:42:44.030Z,99660.91
2022-09-23T22:45:12.868Z,99657.47
2022-09-23T22:47:42.239Z,99654.78
2022-09-23T22:50:10.664Z,99651.16
2022-09-23T22:52:38.308Z,99662.09
2022-09-23T22:55:12.427Z,99660.28
2022-09-23T22:57:39.495Z,99659.41
2022-09-23T23:00:12.454Z,99665.41
2022-09-23T23:05:38.766Z,99652.94
2022-09-23T23:08:06.897Z,99653.94
2022-09-23T23:10:37.815Z,99639.56
2022-09-23T23:13:06.203Z,99644.72
2022-09-23T23:15:39.433Z,99642.72
2022-09-23T23:18:07.578Z,99642.50
2022-09-23T23:20:37.335Z,99640.03
2022-09-23T23:23:08.888Z,99636.75
2022-09-23T23:25:40.089Z,99634.19
2022-09-23T23:28:08.297Z,99635.06
2022-09-23T23:30:39.706Z,99628.94
2022-09-23T23:33:06.840Z,99628.81
2022-09-23T23:35:40.899Z,99628.47
2022-09-23T23:38:33.999Z,99626.28
2022-09-23T23:41:11.949Z,99618.47
2022-09-23T23:43:40.323Z,99610.50
2022-09-23T23:46:10.497Z,99621.13
2022-09-23T23:48:38.419Z,99618.41
2022-09-23T23:51:08.878Z,99616.94
2022-09-23T23:53:38.697Z,99615.38
2022-09-23T23:56:25.542Z,99618.63
2022-09-23T23:59:01.044Z,99619.66
